Time;durP1;ratioP1;P1;durP2;ratioP2;P2;SDS_P1;SDS_P2;PMS_P1;PMS_P2;Temp;Humidity;BMP_temperature;BMP_pressure;BME280_temperature;BME280_humidity;BME280_pressure;Samples;Min_cycle;Max_cycle;Signal;HPM_P1;HPM_P2
2023/09/10 00:01:19;;;;;;;0.10;0.10;;;18.90;50.50;;;;;;5033373;28;20196;-52
2023/09/10 00:03:50;;;;;;;0.10;0.10;;;18.90;50.40;;;;;;5032295;28;20207;-49
2023/09/10 00:06:21;;;;;;;0.10;0.10;;;18.90;50.40;;;;;;5041311;28;20198;-51
2023/09/10 00:08:53;;;;;;;0.00;0.00;;;18.90;50.30;;;;;;5052242;28;20212;-50
2023/09/10 00:11:24;;;;;;;0.00;0.00;;;19.00;50.40;;;;;;5051688;28;20202;-49
2023/09/10 00:13:54;;;;;;;0.05;0.05;;;19.00;50.30;;;;;;5038686;28;20610;-51
2023/09/10 00:16:25;;;;;;;0.08;0.08;;;19.00;50.30;;;;;;5031750;28;20207;-48
2023/09/10 00:18:55;;;;;;;0.10;0.10;;;19.00;50.40;;;;;;5032035;28;20626;-49
2023/09/10 00:21:26;;;;;;;0.03;0.03;;;19.00;50.40;;;;;;5041321;28;20195;-50
2023/09/10 00:23:59;;;;;;;0.10;0.10;;;19.00;50.40;;;;;;5051599;28;20196;-49
2023/09/10 00:26:29;;;;;;;0.10;0.10;;;19.10;50.30;;;;;;5051432;28;20195;-53
2023/09/10 00:29:00;;;;;;;0.00;0.00;;;19.10;50.40;;;;;;5052103;28;20593;-51
2023/09/10 00:31:30;;;;;;;0.10;0.10;;;19.10;50.30;;;;;;5050777;28;20245;-49
2023/09/10 00:34:02;;;;;;;0.10;0.10;;;19.10;50.30;;;;;;5051199;28;20194;-51
2023/09/10 00:36:34;;;;;;;0.10;0.10;;;19.20;50.30;;;;;;5030748;28;20203;-51
2023/09/10 00:39:07;;;;;;;0.00;0.00;;;19.20;50.30;;;;;;5031558;28;20549;-50
2023/09/10 00:41:38;;;;;;;0.00;0.00;;;19.20;50.20;;;;;;5030916;28;20284;-53
2023/09/10 00:44:09;;;;;;;0.10;0.10;;;19.20;50.20;;;;;;5031795;28;20204;-55
2023/09/10 00:46:39;;;;;;;0.08;0.08;;;19.20;50.20;;;;;;5031721;28;20192;-54
2023/09/10 00:49:10;;;;;;;0.10;0.10;;;19.20;50.10;;;;;;5031351;28;20220;-55
2023/09/10 00:51:41;;;;;;;0.00;0.00;;;19.30;50.20;;;;;;5031345;28;20718;-56
2023/09/10 00:54:14;;;;;;;0.00;0.00;;;19.20;50.10;;;;;;5031267;28;20254;-53
2023/09/10 00:56:44;;;;;;;0.00;0.00;;;19.30;50.20;;;;;;5021770;28;20197;-51
2023/09/10 00:59:15;;;;;;;0.10;0.10;;;19.30;49.80;;;;;;5031643;28;20220;-48
2023/09/10 01:01:46;;;;;;;0.00;0.00;;;19.40;48.70;;;;;;5031600;28;20644;-49
2023/09/10 01:04:17;;;;;;;0.00;0.00;;;19.40;48.70;;;;;;5031373;28;20227;-45
2023/09/10 01:06:48;;;;;;;0.00;0.00;;;19.40;47.80;;;;;;5031425;28;20562;-48
2023/09/10 01:09:20;;;;;;;0.00;0.00;;;19.50;47.60;;;;;;5031267;28;20231;-47
2023/09/10 01:11:59;;;;;;;0.00;0.00;;;19.50;47.60;;;;;;5030060;28;20196;-46
2023/09/10 01:14:36;;;;;;;0.00;0.00;;;19.60;47.60;;;;;;5031606;28;20231;-47
2023/09/10 01:17:15;;;;;;;0.00;0.00;;;19.60;47.80;;;;;;5030762;28;20191;-50
2023/09/10 01:20:17;;;;;;;0.00;0.00;;;19.60;48.00;;;;;;5031262;28;20243;-47
2023/09/10 01:22:56;;;;;;;0.00;0.00;;;19.70;48.20;;;;;;5028124;28;20540;-51
2023/09/10 01:25:29;;;;;;;0.00;0.00;;;19.70;48.40;;;;;;5029928;28;20233;-51
2023/09/10 01:28:03;;;;;;;0.10;0.10;;;19.70;48.40;;;;;;5030609;28;20202;-50
2023/09/10 01:30:34;;;;;;;0.05;0.05;;;19.70;48.40;;;;;;5030936;28;20707;-52
2023/09/10 01:33:18;;;;;;;0.00;0.00;;;19.80;48.60;;;;;;5030831;28;20204;-51
2023/09/10 01:35:54;;;;;;;0.00;0.00;;;19.80;48.60;;;;;;5030732;28;20195;-49
2023/09/10 01:38:28;;;;;;;0.03;0.03;;;19.80;48.60;;;;;;5030930;28;20271;-47
2023/09/10 01:41:06;;;;;;;0.00;0.00;;;19.90;48.70;;;;;;5030771;28;20218;-51
2023/09/10 01:43:38;;;;;;;0.00;0.00;;;19.90;48.70;;;;;;5051625;22;20331;-46
2023/09/10 01:46:10;;;;;;;0.00;0.00;;;19.90;48.80;;;;;;5053207;28;20223;-46
2023/09/10 01:48:41;;;;;;;0.00;0.00;;;19.90;48.90;;;;;;5071218;28;20606;-47
2023/09/10 01:51:12;;;;;;;0.00;0.00;;;20.00;48.90;;;;;;5069748;28;20194;-47
2023/09/10 01:53:43;;;;;;;0.00;0.00;;;20.00;49.00;;;;;;5070960;28;20634;-46
2023/09/10 01:56:15;;;;;;;0.00;0.00;;;20.00;49.10;;;;;;5070390;28;20191;-46
2023/09/10 01:58:46;;;;;;;0.00;0.00;;;20.10;49.10;;;;;;5070864;28;20662;-46
2023/09/10 02:01:17;;;;;;;0.00;0.00;;;20.10;49.10;;;;;;5069546;28;20205;-45
2023/09/10 02:03:47;;;;;;;0.00;0.00;;;20.10;49.10;;;;;;5070179;28;20191;-46
2023/09/10 02:06:18;;;;;;;0.00;0.00;;;20.10;49.10;;;;;;5051808;28;20722;-47
2023/09/10 02:08:49;;;;;;;0.00;0.00;;;20.10;49.10;;;;;;5049616;28;20214;-46
2023/09/10 02:11:21;;;;;;;0.10;0.10;;;20.20;49.10;;;;;;5050387;28;20196;-47
2023/09/10 02:13:53;;;;;;;0.03;0.03;;;20.20;49.20;;;;;;5049854;28;20199;-46
2023/09/10 02:16:25;;;;;;;0.00;0.00;;;20.20;49.10;;;;;;5051003;28;20244;-48
2023/09/10 02:18:55;;;;;;;0.00;0.00;;;20.20;49.10;;;;;;5051003;28;20666;-47
2023/09/10 02:21:26;;;;;;;0.03;0.03;;;20.30;49.20;;;;;;5050334;28;20191;-46
2023/09/10 02:23:57;;;;;;;0.10;0.10;;;20.30;49.20;;;;;;5050743;28;20195;-47
2023/09/10 02:26:29;;;;;;;0.00;0.00;;;20.30;49.90;;;;;;5049628;28;20230;-47
2023/09/10 02:29:00;;;;;;;0.10;0.10;;;20.30;49.20;;;;;;5050530;28;20191;-46
2023/09/10 02:31:31;;;;;;;0.00;0.00;;;20.40;49.30;;;;;;5050157;28;20191;-46
2023/09/10 02:34:02;;;;;;;0.10;0.10;;;20.40;49.30;;;;;;5050837;28;20196;-48
2023/09/10 02:36:33;;;;;;;0.10;0.10;;;20.40;49.30;;;;;;5034288;28;20249;-46
2023/09/10 02:39:03;;;;;;;0.10;0.10;;;20.40;49.30;;;;;;5030861;28;20693;-47
2023/09/10 02:41:36;;;;;;;0.00;0.00;;;20.40;49.30;;;;;;5032260;28;20202;-48
2023/09/10 02:44:07;;;;;;;0.00;0.00;;;20.50;49.40;;;;;;5070103;22;20230;-50
2023/09/10 02:46:37;;;;;;;0.00;0.00;;;20.50;49.40;;;;;;5070387;28;20230;-53
2023/09/10 02:49:08;;;;;;;0.00;0.00;;;20.60;49.30;;;;;;5070075;28;20207;-51
2023/09/10 02:51:39;;;;;;;0.00;0.00;;;20.60;49.30;;;;;;5058651;28;20195;-53
2023/09/10 02:54:11;;;;;;;0.00;0.00;;;20.60;49.30;;;;;;5053116;28;20203;-53
2023/09/10 02:56:43;;;;;;;0.10;0.10;;;20.60;49.30;;;;;;5054029;28;20576;-53
2023/09/10 02:59:23;;;;;;;0.00;0.00;;;20.70;49.30;;;;;;5053467;28;20219;-52
2023/09/10 03:01:54;;;;;;;0.00;0.00;;;20.70;49.40;;;;;;5054222;28;20199;-53
2023/09/10 03:04:25;;;;;;;0.00;0.00;;;20.70;49.40;;;;;;5053218;28;20206;-48
2023/09/10 03:06:55;;;;;;;0.03;0.03;;;20.70;49.40;;;;;;5053292;28;20679;-54
2023/09/10 03:09:26;;;;;;;0.00;0.00;;;20.80;49.30;;;;;;5053942;28;20215;-49
2023/09/10 03:12:15;;;;;;;0.00;0.00;;;20.80;49.30;;;;;;5052999;28;20187;-54
2023/09/10 03:14:46;;;;;;;0.00;0.00;;;20.80;49.30;;;;;;5052947;28;20650;-51
2023/09/10 03:17:17;;;;;;;0.00;0.00;;;20.90;49.30;;;;;;5064424;28;20210;-52
2023/09/10 03:19:48;;;;;;;0.00;0.00;;;20.90;49.30;;;;;;5053068;28;20706;-54
2023/09/10 03:22:18;;;;;;;0.00;0.00;;;20.90;49.30;;;;;;5053099;28;20191;-51
2023/09/10 03:24:49;;;;;;;0.00;0.00;;;21.00;49.30;;;;;;5052718;28;20231;-52
2023/09/10 03:27:21;;;;;;;0.00;0.00;;;21.00;49.30;;;;;;5052778;28;20191;-49
2023/09/10 03:29:52;;;;;;;0.00;0.00;;;21.00;49.30;;;;;;5052448;28;20238;-48
2023/09/10 03:32:23;;;;;;;0.00;0.00;;;21.10;49.30;;;;;;5052343;28;20557;-52
2023/09/10 03:34:53;;;;;;;0.10;0.10;;;21.10;49.30;;;;;;5052230;28;20214;-49
2023/09/10 03:37:24;;;;;;;0.00;0.00;;;21.10;49.20;;;;;;5053141;28;20235;-53
2023/09/10 03:39:55;;;;;;;0.00;0.00;;;21.20;49.30;;;;;;5052891;28;20222;-54
2023/09/10 03:42:27;;;;;;;0.10;0.10;;;21.20;49.30;;;;;;5052310;28;20198;-55
2023/09/10 03:44:58;;;;;;;0.00;0.00;;;21.20;49.30;;;;;;5052939;28;20206;-51
2023/09/10 03:47:29;;;;;;;0.03;0.03;;;21.20;49.20;;;;;;5052729;28;20196;-52
2023/09/10 03:50:00;;;;;;;0.00;0.00;;;21.30;49.20;;;;;;5052632;28;20683;-54
2023/09/10 03:52:31;;;;;;;0.00;0.00;;;21.30;49.20;;;;;;5052865;28;20195;-54
2023/09/10 03:55:02;;;;;;;0.00;0.00;;;21.30;49.40;;;;;;5052819;28;20203;-52
2023/09/10 03:57:34;;;;;;;0.00;0.00;;;21.40;49.20;;;;;;5052765;28;20210;-52
2023/09/10 04:00:07;;;;;;;0.00;0.00;;;21.40;49.10;;;;;;5052266;28;20219;-55
2023/09/10 04:02:39;;;;;;;0.08;0.08;;;21.40;49.00;;;;;;5051553;28;20282;-54
2023/09/10 04:05:11;;;;;;;0.10;0.10;;;21.40;49.00;;;;;;5052563;28;20199;-54
2023/09/10 04:07:42;;;;;;;0.10;0.10;;;21.40;49.10;;;;;;5052630;28;20278;-55
2023/09/10 04:10:13;;;;;;;0.00;0.00;;;21.40;49.10;;;;;;5052701;28;20216;-54
2023/09/10 04:12:45;;;;;;;0.00;0.00;;;21.50;49.10;;;;;;5052199;28;20187;-52
2023/09/10 04:15:16;;;;;;;0.10;0.10;;;21.50;49.20;;;;;;5052195;28;20584;-52
2023/09/10 04:17:47;;;;;;;0.10;0.10;;;21.50;49.20;;;;;;5051603;28;20192;-54
2023/09/10 04:20:19;;;;;;;0.00;0.00;;;21.50;49.10;;;;;;5052196;28;20212;-55
2023/09/10 04:22:50;;;;;;;0.05;0.05;;;21.60;49.20;;;;;;5052203;28;20227;-54
2023/09/10 04:25:21;;;;;;;0.10;0.10;;;21.60;49.20;;;;;;5051804;28;20215;-53
2023/09/10 04:27:53;;;;;;;0.00;0.00;;;21.60;49.20;;;;;;5052809;28;20195;-49
2023/09/10 04:30:24;;;;;;;0.05;0.05;;;21.60;49.10;;;;;;5061865;28;20222;-53
2023/09/10 04:32:54;;;;;;;0.10;0.10;;;21.60;49.00;;;;;;5052710;28;20195;-53
2023/09/10 04:35:25;;;;;;;0.00;0.00;;;21.70;49.10;;;;;;5047880;28;20215;-49
2023/09/10 04:37:56;;;;;;;0.08;0.08;;;21.70;49.10;;;;;;5052112;28;20206;-48
2023/09/10 04:40:26;;;;;;;0.00;0.00;;;21.70;49.20;;;;;;5048881;28;20218;-51
2023/09/10 04:42:59;;;;;;;0.00;0.00;;;21.70;49.20;;;;;;5032151;28;20207;-53
2023/09/10 04:45:29;;;;;;;0.00;0.00;;;21.70;49.20;;;;;;5042805;28;20219;-53
2023/09/10 04:48:02;;;;;;;0.00;0.00;;;21.70;49.10;;;;;;5053870;28;20199;-53
2023/09/10 04:50:33;;;;;;;0.00;0.00;;;21.70;49.10;;;;;;5050077;28;20216;-53
2023/09/10 04:53:04;;;;;;;0.10;0.10;;;21.70;49.10;;;;;;5045405;28;20267;-55
2023/09/10 04:55:35;;;;;;;0.03;0.03;;;21.80;49.20;;;;;;5046610;28;20230;-55
2023/09/10 04:58:07;;;;;;;0.00;0.00;;;21.80;49.20;;;;;;5052095;28;20192;-53
2023/09/10 05:00:41;;;;;;;0.05;0.05;;;21.80;49.20;;;;;;5051204;28;20219;-52
2023/09/10 05:03:12;;;;;;;0.03;0.03;;;21.80;49.20;;;;;;5050763;28;20231;-55
2023/09/10 05:05:43;;;;;;;0.00;0.00;;;21.80;49.20;;;;;;5046472;28;20679;-53
2023/09/10 05:08:13;;;;;;;0.00;0.00;;;21.80;49.20;;;;;;5051378;28;20590;-54
2023/09/10 05:10:44;;;;;;;0.00;0.00;;;21.90;49.30;;;;;;5050867;28;20215;-49
2023/09/10 05:13:16;;;;;;;0.03;0.03;;;21.80;49.30;;;;;;5049855;28;20203;-51
2023/09/10 05:15:49;;;;;;;0.00;0.00;;;21.80;49.30;;;;;;5051807;28;20282;-51
2023/09/10 05:18:19;;;;;;;0.10;0.10;;;21.80;49.30;;;;;;5030788;28;20200;-48
2023/09/10 05:20:52;;;;;;;0.10;0.10;;;21.80;49.40;;;;;;5043574;28;20211;-48
2023/09/10 05:23:24;;;;;;;0.00;0.00;;;21.80;49.30;;;;;;5050401;28;20191;-52
2023/09/10 05:25:54;;;;;;;0.10;0.10;;;21.80;49.30;;;;;;5049577;28;20223;-48
2023/09/10 05:28:27;;;;;;;0.00;0.00;;;21.80;49.30;;;;;;5051333;28;20662;-48
2023/09/10 05:30:58;;;;;;;0.10;0.10;;;21.80;49.30;;;;;;5045952;28;20676;-50
2023/09/10 05:33:28;;;;;;;0.08;0.08;;;21.80;49.40;;;;;;5051023;28;20202;-49
2023/09/10 05:35:59;;;;;;;0.00;0.00;;;21.80;49.40;;;;;;5049943;28;20195;-51
2023/09/10 05:38:30;;;;;;;0.00;0.00;;;21.80;49.40;;;;;;5048893;28;20647;-52
2023/09/10 05:41:04;;;;;;;0.00;0.00;;;21.80;49.40;;;;;;5049796;28;20223;-51
2023/09/10 05:43:37;;;;;;;0.10;0.10;;;21.80;49.30;;;;;;5049900;28;20206;-51
2023/09/10 05:46:07;;;;;;;0.00;0.00;;;21.80;49.40;;;;;;5049809;28;20683;-53
2023/09/10 05:48:38;;;;;;;0.10;0.10;;;21.80;49.40;;;;;;5049929;28;20203;-50
2023/09/10 05:51:09;;;;;;;0.00;0.00;;;21.80;49.50;;;;;;5050986;28;20187;-55
2023/09/10 05:53:42;;;;;;;0.00;0.00;;;21.80;49.40;;;;;;5049822;28;20199;-49
2023/09/10 05:56:13;;;;;;;0.00;0.00;;;21.80;49.40;;;;;;5049735;28;20671;-54
2023/09/10 05:58:45;;;;;;;0.03;0.03;;;21.80;49.40;;;;;;5050148;28;20204;-51
2023/09/10 06:01:16;;;;;;;0.00;0.00;;;21.80;49.40;;;;;;5050724;28;20648;-50
2023/09/10 06:03:47;;;;;;;0.00;0.00;;;21.80;49.40;;;;;;5050350;28;20212;-55
2023/09/10 06:06:17;;;;;;;0.00;0.00;;;21.80;49.30;;;;;;5049908;28;20219;-51
2023/09/10 06:08:48;;;;;;;0.10;0.10;;;21.80;49.30;;;;;;5050124;28;20199;-49
2023/09/10 06:11:18;;;;;;;0.00;0.00;;;21.80;49.30;;;;;;5049015;28;20203;-49
2023/09/10 06:13:51;;;;;;;0.10;0.10;;;21.80;49.30;;;;;;5049811;28;20993;-48
2023/09/10 06:16:21;;;;;;;0.03;0.03;;;21.80;49.40;;;;;;5050106;28;20614;-49
2023/09/10 06:18:53;;;;;;;0.10;0.10;;;21.80;49.40;;;;;;5050396;28;20666;-47
2023/09/10 06:21:23;;;;;;;0.00;0.00;;;21.80;49.50;;;;;;5050065;28;20249;-50
2023/09/10 06:23:54;;;;;;;0.00;0.00;;;21.80;49.50;;;;;;5051445;28;20199;-51
2023/09/10 06:26:25;;;;;;;0.00;0.00;;;21.70;49.50;;;;;;5066325;28;20218;-55
2023/09/10 06:28:57;;;;;;;0.00;0.00;;;21.70;49.40;;;;;;5074600;28;20214;-52
2023/09/10 06:31:28;;;;;;;0.00;0.00;;;21.70;49.40;;;;;;5054075;28;20200;-50
2023/09/10 06:33:58;;;;;;;0.00;0.00;;;21.70;49.30;;;;;;5054168;28;20199;-51
2023/09/10 06:36:29;;;;;;;0.00;0.00;;;21.70;49.30;;;;;;5048163;28;20187;-52
2023/09/10 06:39:00;;;;;;;0.00;0.00;;;21.70;49.30;;;;;;5053379;28;20196;-55
2023/09/10 06:41:31;;;;;;;0.00;0.00;;;21.70;49.30;;;;;;5061217;28;20182;-53
2023/09/10 06:44:03;;;;;;;0.10;0.10;;;21.70;49.30;;;;;;5054046;28;20219;-52
2023/09/10 06:46:34;;;;;;;0.00;0.00;;;21.60;49.80;;;;;;5054135;28;20622;-51
2023/09/10 06:49:04;;;;;;;0.00;0.00;;;21.60;49.20;;;;;;5054150;28;20667;-51
2023/09/10 06:51:35;;;;;;;0.10;0.10;;;21.60;49.20;;;;;;5054874;28;20198;-51
2023/09/10 06:54:06;;;;;;;0.00;0.00;;;21.60;49.30;;;;;;5053798;28;20195;-56
2023/09/10 06:56:36;;;;;;;0.00;0.00;;;21.60;49.30;;;;;;5053339;28;20207;-55
2023/09/10 06:59:09;;;;;;;0.10;0.10;;;21.60;49.30;;;;;;5056614;28;20211;-53
2023/09/10 07:01:39;;;;;;;0.00;0.00;;;21.60;49.40;;;;;;5054138;28;20647;-55
2023/09/10 07:04:20;;;;;;;0.00;0.00;;;21.60;50.00;;;;;;5053849;28;20613;-54
2023/09/10 07:06:52;;;;;;;0.00;0.00;;;21.50;49.30;;;;;;5053604;28;20230;-53
2023/09/10 07:09:24;;;;;;;0.00;0.00;;;21.60;50.10;;;;;;5053821;28;20718;-52
2023/09/10 07:11:56;;;;;;;0.00;0.00;;;21.50;49.30;;;;;;5054634;28;20203;-54
2023/09/10 07:14:28;;;;;;;0.00;0.00;;;21.50;49.40;;;;;;5055230;28;20203;-51
2023/09/10 07:16:59;;;;;;;0.00;0.00;;;21.50;49.30;;;;;;5054261;28;20651;-54
2023/09/10 07:19:29;;;;;;;0.00;0.00;;;21.50;49.40;;;;;;5054159;28;20682;-53
2023/09/10 07:22:00;;;;;;;0.00;0.00;;;21.50;49.30;;;;;;5055810;28;20594;-55
2023/09/10 07:24:31;;;;;;;0.00;0.00;;;21.40;49.30;;;;;;5073320;28;20577;-53
2023/09/10 07:27:02;;;;;;;0.10;0.10;;;21.40;49.30;;;;;;5073529;28;20634;-52
2023/09/10 07:29:35;;;;;;;0.08;0.08;;;21.40;49.30;;;;;;5073926;28;20223;-53
2023/09/10 07:32:05;;;;;;;0.00;0.00;;;21.40;49.30;;;;;;5059266;28;20191;-55
2023/09/10 07:34:36;;;;;;;0.10;0.10;;;21.40;49.30;;;;;;5053332;28;20203;-55
2023/09/10 07:37:07;;;;;;;0.00;0.00;;;21.40;49.40;;;;;;5053676;28;20199;-53
2023/09/10 07:39:38;;;;;;;0.00;0.00;;;21.30;49.30;;;;;;5052652;28;20579;-49
2023/09/10 07:42:08;;;;;;;0.00;0.00;;;21.30;49.30;;;;;;5052700;28;20641;-49
2023/09/10 07:44:41;;;;;;;0.00;0.00;;;21.30;49.40;;;;;;5053030;28;20355;-51
2023/09/10 07:47:12;;;;;;;0.00;0.00;;;21.30;49.40;;;;;;5053203;28;20660;-50
2023/09/10 07:49:43;;;;;;;0.10;0.10;;;21.30;49.40;;;;;;5053622;28;20288;-48
2023/09/10 07:52:13;;;;;;;0.00;0.00;;;21.30;49.40;;;;;;5052728;28;20447;-51
2023/09/10 07:54:44;;;;;;;0.00;0.00;;;21.20;49.40;;;;;;5053289;28;20196;-50
2023/09/10 07:57:16;;;;;;;0.00;0.00;;;21.20;49.40;;;;;;5053349;28;20234;-53
2023/09/10 07:59:49;;;;;;;0.00;0.00;;;21.20;50.00;;;;;;5052975;28;20264;-46
2023/09/10 08:02:20;;;;;;;0.00;0.00;;;21.20;49.40;;;;;;5052587;28;20203;-52
2023/09/10 08:04:51;;;;;;;0.00;0.00;;;21.20;49.40;;;;;;5053007;28;20203;-49
2023/09/10 08:07:21;;;;;;;0.00;0.00;;;21.20;49.40;;;;;;5052347;28;20223;-50
2023/09/10 08:09:52;;;;;;;0.00;0.00;;;21.10;49.40;;;;;;5052599;28;20219;-55
2023/09/10 08:12:22;;;;;;;0.00;0.00;;;21.10;49.40;;;;;;5052132;28;20206;-51
2023/09/10 08:14:55;;;;;;;0.00;0.00;;;21.10;49.40;;;;;;5049725;28;20210;-54
2023/09/10 08:17:25;;;;;;;0.00;0.00;;;21.10;49.40;;;;;;5051179;28;20309;-49
2023/09/10 08:19:56;;;;;;;0.00;0.00;;;21.10;49.40;;;;;;5051704;28;20233;-55
2023/09/10 08:22:27;;;;;;;0.00;0.00;;;21.00;49.40;;;;;;5051327;28;20671;-51
2023/09/10 08:24:57;;;;;;;0.00;0.00;;;21.00;49.40;;;;;;5051809;28;20203;-55
2023/09/10 08:27:28;;;;;;;0.00;0.00;;;21.00;49.50;;;;;;5051836;28;20227;-52
2023/09/10 08:30:00;;;;;;;0.00;0.00;;;21.00;49.50;;;;;;5052019;28;20219;-55
2023/09/10 08:32:31;;;;;;;0.00;0.00;;;21.00;49.50;;;;;;5054486;28;20218;-48
2023/09/10 08:35:02;;;;;;;0.00;0.00;;;21.00;49.60;;;;;;5052198;28;20203;-50
2023/09/10 08:37:33;;;;;;;0.10;0.10;;;20.90;49.50;;;;;;5051570;28;20199;-50
2023/09/10 08:40:04;;;;;;;0.00;0.00;;;20.90;49.50;;;;;;5051740;28;20273;-46
2023/09/10 08:42:46;;;;;;;0.00;0.00;;;20.90;49.50;;;;;;5051472;28;20198;-49
2023/09/10 08:45:18;;;;;;;0.05;0.05;;;20.90;49.50;;;;;;5051415;28;20203;-52
2023/09/10 08:47:55;;;;;;;0.00;0.00;;;20.90;49.50;;;;;;5050046;28;20234;-55
2023/09/10 08:50:26;;;;;;;0.03;0.03;;;20.80;49.40;;;;;;5052058;28;20215;-55
2023/09/10 08:52:58;;;;;;;0.00;0.00;;;20.80;49.50;;;;;;5066804;28;20609;-56
2023/09/10 08:55:30;;;;;;;0.00;0.00;;;20.80;49.50;;;;;;5058975;28;20242;-53
2023/09/10 08:58:02;;;;;;;0.00;0.00;;;20.80;49.70;;;;;;5051530;28;20210;-55
2023/09/10 09:00:36;;;;;;;0.10;0.10;;;20.80;49.50;;;;;;5051184;28;20215;-54
2023/09/10 09:03:06;;;;;;;0.00;0.00;;;20.70;49.50;;;;;;5051372;28;20200;-49
2023/09/10 09:05:38;;;;;;;0.03;0.03;;;20.70;49.60;;;;;;5051587;28;20206;-56
2023/09/10 09:08:16;;;;;;;0.00;0.00;;;20.70;49.60;;;;;;5054233;28;20262;-53
2023/09/10 09:10:47;;;;;;;0.00;0.00;;;20.70;49.70;;;;;;5053542;28;20215;-55
2023/09/10 09:13:20;;;;;;;0.00;0.00;;;20.70;50.20;;;;;;5055857;28;20647;-54
2023/09/10 09:15:53;;;;;;;0.00;0.00;;;20.70;50.20;;;;;;5051034;28;20199;-54
2023/09/10 09:18:24;;;;;;;0.00;0.00;;;20.70;50.10;;;;;;5050854;28;20195;-46
2023/09/10 09:20:58;;;;;;;0.00;0.00;;;20.70;50.10;;;;;;5048524;28;20255;-49
2023/09/10 09:23:32;;;;;;;0.00;0.00;;;20.70;50.10;;;;;;5051514;28;20207;-49
2023/09/10 09:26:04;;;;;;;0.00;0.00;;;20.70;50.10;;;;;;5046705;28;20200;-50
2023/09/10 09:28:35;;;;;;;0.00;0.00;;;20.60;50.00;;;;;;5050538;28;20702;-46
2023/09/10 09:31:11;;;;;;;0.00;0.00;;;20.60;50.00;;;;;;5049975;28;20207;-46
2023/09/10 09:33:41;;;;;;;0.00;0.00;;;20.60;50.00;;;;;;5055338;28;20275;-49
2023/09/10 09:36:13;;;;;;;0.00;0.00;;;20.60;49.90;;;;;;5050466;28;20203;-52
2023/09/10 09:38:45;;;;;;;0.00;0.00;;;20.60;50.00;;;;;;5049164;28;20564;-48
2023/09/10 09:41:18;;;;;;;0.00;0.00;;;20.60;50.00;;;;;;5050513;28;20191;-48
2023/09/10 09:43:48;;;;;;;0.00;0.00;;;20.60;50.00;;;;;;5039853;28;20195;-50
2023/09/10 09:46:21;;;;;;;0.00;0.00;;;20.50;50.00;;;;;;5047129;28;20215;-51
2023/09/10 09:48:52;;;;;;;0.10;0.10;;;20.50;50.00;;;;;;5050460;28;20227;-52
2023/09/10 09:51:23;;;;;;;0.00;0.00;;;20.50;50.00;;;;;;5051027;28;20187;-52
2023/09/10 09:53:53;;;;;;;0.03;0.03;;;20.50;50.00;;;;;;5049427;28;20207;-50
2023/09/10 09:56:24;;;;;;;0.00;0.00;;;20.50;50.00;;;;;;5050421;28;20203;-52
2023/09/10 09:59:00;;;;;;;0.10;0.10;;;20.50;50.00;;;;;;5051881;28;20206;-48
2023/09/10 10:01:32;;;;;;;0.00;0.00;;;20.40;50.00;;;;;;5055268;28;20201;-46
2023/09/10 10:04:04;;;;;;;0.10;0.10;;;20.40;50.00;;;;;;5054466;28;20218;-52
2023/09/10 10:06:35;;;;;;;0.05;0.05;;;20.40;50.00;;;;;;5052253;28;20662;-52
2023/09/10 10:09:07;;;;;;;0.10;0.10;;;20.40;50.00;;;;;;5053953;28;20223;-52
2023/09/10 10:11:38;;;;;;;0.05;0.05;;;20.40;50.00;;;;;;5053849;28;20188;-50
2023/09/10 10:14:09;;;;;;;0.00;0.00;;;20.30;49.90;;;;;;5054440;28;20612;-49
2023/09/10 10:16:42;;;;;;;0.10;0.10;;;20.30;49.90;;;;;;5053269;28;20202;-52
2023/09/10 10:19:13;;;;;;;0.10;0.10;;;20.30;49.90;;;;;;5053838;28;20219;-52
2023/09/10 10:21:45;;;;;;;0.00;0.00;;;20.30;49.90;;;;;;5050670;28;20191;-53
2023/09/10 10:24:17;;;;;;;0.00;0.00;;;20.30;50.00;;;;;;5053967;28;20195;-55
2023/09/10 10:26:51;;;;;;;0.00;0.00;;;20.30;50.00;;;;;;5053512;28;20199;-49
2023/09/10 10:29:22;;;;;;;0.10;0.10;;;20.20;49.90;;;;;;5053603;28;20226;-48
2023/09/10 10:32:02;;;;;;;0.00;0.00;;;20.20;50.00;;;;;;5054028;28;20188;-47
2023/09/10 10:34:39;;;;;;;0.00;0.00;;;20.20;50.00;;;;;;5053409;28;20195;-50
2023/09/10 10:37:17;;;;;;;0.00;0.00;;;20.20;50.00;;;;;;5038140;28;20648;-48
2023/09/10 10:39:56;;;;;;;0.05;0.05;;;20.20;50.00;;;;;;5053478;28;20228;-52
2023/09/10 10:42:38;;;;;;;0.00;0.00;;;20.20;50.00;;;;;;5057265;28;20198;-53
2023/09/10 10:45:10;;;;;;;0.10;0.10;;;20.10;50.00;;;;;;5053486;28;20195;-49
2023/09/10 10:47:46;;;;;;;0.00;0.00;;;20.10;50.00;;;;;;5053293;28;20284;-53
2023/09/10 10:50:22;;;;;;;0.00;0.00;;;20.10;50.00;;;;;;5054219;28;20257;-53
2023/09/10 10:53:01;;;;;;;0.00;0.00;;;20.10;50.00;;;;;;5064489;28;20282;-52
2023/09/10 10:55:34;;;;;;;0.10;0.10;;;20.10;50.00;;;;;;5056750;28;20195;-49
2023/09/10 10:58:05;;;;;;;0.00;0.00;;;20.10;50.00;;;;;;5053217;28;20608;-46
2023/09/10 11:00:36;;;;;;;0.00;0.00;;;20.00;50.00;;;;;;5053693;28;20226;-49
2023/09/10 11:03:14;;;;;;;0.00;0.00;;;20.00;50.00;;;;;;5053132;28;20195;-52
2023/09/10 11:06:11;;;;;;;0.10;0.10;;;20.00;50.10;;;;;;5053494;28;20199;-50
2023/09/10 11:08:43;;;;;;;0.00;0.00;;;20.00;50.10;;;;;;5053514;28;20619;-49
2023/09/10 11:11:46;;;;;;;0.00;0.00;;;20.00;50.10;;;;;;5052937;28;20650;-50
2023/09/10 11:14:16;;;;;;;0.00;0.00;;;19.90;50.00;;;;;;5056782;28;20195;-50
2023/09/10 11:16:47;;;;;;;0.00;0.00;;;19.90;50.00;;;;;;5048248;28;20958;-49
2023/09/10 11:19:48;;;;;;;0.10;0.10;;;19.90;50.60;;;;;;5042200;28;20216;-48
2023/09/10 11:22:19;;;;;;;0.03;0.03;;;19.90;50.00;;;;;;5045239;28;20651;-53
2023/09/10 11:25:04;;;;;;;0.00;0.00;;;19.90;50.00;;;;;;5043281;28;20193;-48
2023/09/10 11:27:35;;;;;;;0.00;0.00;;;19.90;50.00;;;;;;5050265;28;20284;-53
2023/09/10 11:30:15;;;;;;;0.00;0.00;;;19.90;50.10;;;;;;5053206;28;20218;-55
2023/09/10 11:32:46;;;;;;;0.00;0.00;;;19.80;50.00;;;;;;5050227;28;20290;-54
2023/09/10 11:35:29;;;;;;;0.05;0.05;;;19.80;50.00;;;;;;5050844;28;20188;-51
2023/09/10 11:38:00;;;;;;;0.05;0.05;;;19.80;50.10;;;;;;5051264;28;20278;-52
2023/09/10 11:40:31;;;;;;;0.00;0.00;;;19.80;50.00;;;;;;5053329;28;20218;-49
2023/09/10 11:43:02;;;;;;;0.00;0.00;;;19.80;50.10;;;;;;5052859;28;20188;-55
2023/09/10 11:45:34;;;;;;;0.00;0.00;;;19.80;50.10;;;;;;5050587;28;20203;-55
2023/09/10 11:48:05;;;;;;;0.10;0.10;;;19.70;50.10;;;;;;5053082;28;20211;-52
2023/09/10 11:50:38;;;;;;;0.00;0.00;;;19.80;50.20;;;;;;5051403;28;20674;-51
2023/09/10 11:53:09;;;;;;;0.00;0.00;;;19.80;50.20;;;;;;5052412;28;20192;-56
2023/09/10 11:55:39;;;;;;;0.00;0.00;;;19.70;50.20;;;;;;5053472;28;20195;-50
2023/09/10 11:58:11;;;;;;;0.00;0.00;;;19.70;50.10;;;;;;5053007;28;20199;-52
2023/09/10 12:00:46;;;;;;;0.08;0.08;;;19.70;50.10;;;;;;5052757;28;20669;-50
2023/09/10 12:03:17;;;;;;;0.10;0.10;;;19.70;50.10;;;;;;5050914;28;20226;-48
2023/09/10 12:05:50;;;;;;;0.00;0.00;;;19.70;50.10;;;;;;5052315;28;20198;-57
2023/09/10 12:08:20;;;;;;;0.10;0.10;;;19.70;50.10;;;;;;5052248;28;20223;-52
2023/09/10 12:10:51;;;;;;;0.00;0.00;;;19.70;50.20;;;;;;5049589;28;20236;-52
2023/09/10 12:13:23;;;;;;;0.00;0.00;;;19.60;50.10;;;;;;5051947;28;20203;-54
2023/09/10 12:15:54;;;;;;;0.00;0.00;;;19.60;50.10;;;;;;5049722;28;20196;-50
2023/09/10 12:18:25;;;;;;;0.10;0.10;;;19.70;50.20;;;;;;5051774;28;20192;-53
2023/09/10 12:20:59;;;;;;;0.10;0.10;;;19.60;50.10;;;;;;5049786;28;20670;-55
2023/09/10 12:23:30;;;;;;;0.00;0.00;;;19.60;50.20;;;;;;5051902;28;20191;-50
2023/09/10 12:26:04;;;;;;;0.00;0.00;;;19.60;50.20;;;;;;5052112;28;20199;-53
2023/09/10 12:28:35;;;;;;;0.00;0.00;;;19.60;50.20;;;;;;5049417;28;20219;-51
2023/09/10 12:31:06;;;;;;;0.10;0.10;;;19.60;50.20;;;;;;5051811;28;20709;-52
2023/09/10 12:33:37;;;;;;;0.10;0.10;;;19.60;50.30;;;;;;5051898;28;20198;-48
2023/09/10 12:36:10;;;;;;;0.10;0.10;;;19.60;50.30;;;;;;5051730;28;20203;-54
2023/09/10 12:38:40;;;;;;;0.00;0.00;;;19.50;50.30;;;;;;5051787;28;20195;-49
2023/09/10 12:41:11;;;;;;;0.00;0.00;;;19.60;50.30;;;;;;5053617;28;20191;-50
2023/09/10 12:43:42;;;;;;;0.10;0.10;;;19.60;50.20;;;;;;5051704;28;20200;-54
2023/09/10 12:46:13;;;;;;;0.00;0.00;;;19.50;50.20;;;;;;5049451;28;20590;-51
2023/09/10 12:48:44;;;;;;;0.00;0.00;;;19.50;50.20;;;;;;5051917;28;20238;-55
2023/09/10 12:51:17;;;;;;;0.00;0.00;;;19.50;50.20;;;;;;5050067;28;20249;-52
2023/09/10 12:53:48;;;;;;;0.00;0.00;;;19.50;50.80;;;;;;5054549;28;20188;-47
2023/09/10 12:56:19;;;;;;;0.00;0.00;;;19.50;50.20;;;;;;5051520;28;20199;-56
2023/09/10 12:58:52;;;;;;;0.00;0.00;;;19.50;50.30;;;;;;5051463;28;20647;-52
2023/09/10 13:01:25;;;;;;;0.00;0.00;;;19.50;50.20;;;;;;5051672;28;20188;-55
2023/09/10 13:03:56;;;;;;;0.00;0.00;;;19.50;50.20;;;;;;5051253;28;20191;-49
2023/09/10 13:06:28;;;;;;;0.00;0.00;;;19.50;50.30;;;;;;5051677;28;20210;-53
2023/09/10 13:09:03;;;;;;;0.00;0.00;;;19.40;50.20;;;;;;5051556;28;20223;-54
2023/09/10 13:11:33;;;;;;;0.00;0.00;;;19.40;50.30;;;;;;5051565;28;20621;-51
2023/09/10 13:14:04;;;;;;;0.10;0.10;;;19.40;50.30;;;;;;5053942;28;20591;-53